createdAt,value
2023-04-29T00:01:20.963Z,17.58
2023-04-29T00:03:47.935Z,17.78
2023-04-29T00:06:15.322Z,17.76
2023-04-29T00:08:42.876Z,17.78
2023-04-29T00:11:10.912Z,17.77
2023-04-29T00:13:40.900Z,17.76
2023-04-29T00:16:08.718Z,17.67
2023-04-29T00:18:36.480Z,17.63
2023-04-29T00:21:06.028Z,17.47
2023-04-29T00:23:36.030Z,17.49
2023-04-29T00:26:03.010Z,17.31
2023-04-29T00:28:29.790Z,17.10
2023-04-29T00:30:57.216Z,17.10
2023-04-29T00:33:24.280Z,17.08
2023-04-29T00:35:51.363Z,17.06
2023-04-29T00:38:18.326Z,17.17
2023-04-29T00:40:45.404Z,17.02
2023-04-29T00:43:12.192Z,17.12
2023-04-29T00:45:38.944Z,17.18
2023-04-29T00:48:05.885Z,17.22
2023-04-29T00:50:33.011Z,17.23
2023-04-29T00:53:00.795Z,17.22
2023-04-29T00:55:28.560Z,17.05
2023-04-29T00:57:55.999Z,17.06
2023-04-29T01:00:22.813Z,16.89
2023-04-29T01:02:50.152Z,16.92
2023-04-29T01:05:17.871Z,16.95
2023-04-29T01:08:06.687Z,16.80
2023-04-29T01:10:44.415Z,16.77
2023-04-29T01:13:42.219Z,16.90
2023-04-29T01:16:17.306Z,16.90
2023-04-29T01:18:54.345Z,16.93
2023-04-29T01:21:25.221Z,16.91
2023-04-29T01:23:56.352Z,16.93
2023-04-29T01:26:26.944Z,16.94
2023-04-29T01:29:30.568Z,16.93
2023-04-29T01:32:09.157Z,16.86
2023-04-29T01:34:59.524Z,16.79
2023-04-29T01:37:38.630Z,16.71
2023-04-29T01:40:33.976Z,16.70
2023-04-29T01:43:11.747Z,16.68
2023-04-29T01:45:44.852Z,16.68
2023-04-29T01:48:13.239Z,16.66
2023-04-29T01:50:41.128Z,16.68
2023-04-29T01:53:11.500Z,16.76
2023-04-29T01:55:38.150Z,16.82
2023-04-29T01:58:14.938Z,16.85
2023-04-29T02:01:07.276Z,16.85
2023-04-29T02:03:36.478Z,16.93
2023-04-29T02:06:06.955Z,16.89
2023-04-29T02:08:34.627Z,16.90
2023-04-29T02:11:01.742Z,16.99
2023-04-29T02:13:33.479Z,17.04
2023-04-29T02:16:11.366Z,17.09
2023-04-29T02:18:42.637Z,17.03
2023-04-29T02:21:09.727Z,17.05
2023-04-29T02:23:36.529Z,16.88
2023-04-29T02:26:06.220Z,16.68
2023-04-29T02:28:36.286Z,16.78
2023-04-29T02:31:04.071Z,16.83
2023-04-29T02:33:30.990Z,16.78
2023-04-29T02:35:57.681Z,16.76
2023-04-29T02:38:24.384Z,16.69
2023-04-29T02:40:51.288Z,16.65
2023-04-29T02:43:17.960Z,16.53
2023-04-29T02:45:45.369Z,16.53
2023-04-29T02:48:12.271Z,16.43
2023-04-29T02:50:39.147Z,16.34
2023-04-29T02:53:05.890Z,16.29
2023-04-29T02:55:32.913Z,16.27
2023-04-29T02:58:05.191Z,16.18
2023-04-29T03:00:31.913Z,16.15
2023-04-29T03:02:58.895Z,16.11
2023-04-29T03:05:25.689Z,16.00
2023-04-29T03:07:52.516Z,15.97
2023-04-29T03:10:19.868Z,15.87
2023-04-29T03:12:46.614Z,15.78
2023-04-29T03:15:13.296Z,15.99
2023-04-29T03:17:40.386Z,15.89
2023-04-29T03:20:07.878Z,15.89
2023-04-29T03:22:34.926Z,15.89
2023-04-29T03:25:01.852Z,15.85
2023-04-29T03:27:29.052Z,15.80
2023-04-29T03:29:55.721Z,15.77
2023-04-29T03:32:22.760Z,15.78
2023-04-29T03:34:50.494Z,15.75
2023-04-29T03:37:27.839Z,15.68
2023-04-29T03:40:05.033Z,15.66
2023-04-29T03:42:31.725Z,15.57
2023-04-29T03:44:58.421Z,15.64
2023-04-29T03:47:25.059Z,15.46
2023-04-29T03:49:51.859Z,15.60
2023-04-29T03:52:18.791Z,15.49
2023-04-29T03:54:48.302Z,15.43
2023-04-29T03:57:15.003Z,15.27
2023-04-29T03:59:41.757Z,15.24
2023-04-29T04:02:08.621Z,15.39
2023-04-29T04:04:35.512Z,15.46
2023-04-29T04:07:03.818Z,15.46
2023-04-29T04:09:40.064Z,15.30
2023-04-29T04:12:06.966Z,15.36
2023-04-29T04:14:34.542Z,15.35
2023-04-29T04:17:01.463Z,15.26
2023-04-29T04:19:29.250Z,15.28
2023-04-29T04:21:56.267Z,15.30
2023-04-29T04:24:23.068Z,15.34
2023-04-29T04:26:49.757Z,15.22
2023-04-29T04:29:21.674Z,15.14
2023-04-29T04:32:08.761Z,15.20
2023-04-29T04:34:39.360Z,15.40
2023-04-29T04:37:06.633Z,15.58
2023-04-29T04:39:34.085Z,15.10
2023-04-29T04:42:03.172Z,15.31
2023-04-29T04:44:32.076Z,15.59
2023-04-29T04:47:06.133Z,15.77
2023-04-29T04:49:50.153Z,15.69
2023-04-29T04:52:20.336Z,15.83
2023-04-29T04:54:50.676Z,15.88
2023-04-29T04:57:22.481Z,15.85
2023-04-29T04:59:49.326Z,16.04
2023-04-29T05:02:16.018Z,16.13
2023-04-29T05:04:42.751Z,16.20
2023-04-29T05:07:09.855Z,16.20
2023-04-29T05:09:56.206Z,16.16
2023-04-29T05:12:23.447Z,16.28
2023-04-29T05:14:53.377Z,16.43
2023-04-29T05:17:20.096Z,16.52
2023-04-29T05:19:46.808Z,16.55
2023-04-29T05:22:13.693Z,16.60
2023-04-29T05:24:41.087Z,16.53
2023-04-29T05:27:07.817Z,16.59
2023-04-29T05:29:34.576Z,16.60
2023-04-29T05:32:02.753Z,16.62
2023-04-29T05:34:29.460Z,16.69
2023-04-29T05:36:57.286Z,16.74
2023-04-29T05:39:24.316Z,16.81
2023-04-29T05:42:03.287Z,16.98
2023-04-29T05:44:43.983Z,16.98
2023-04-29T05:47:10.698Z,17.00
2023-04-29T05:49:39.297Z,17.12
2023-04-29T05:52:06.693Z,17.14
2023-04-29T05:54:38.662Z,17.05
2023-04-29T05:57:06.341Z,17.02
2023-04-29T05:59:33.758Z,16.97
2023-04-29T06:02:04.319Z,17.10
2023-04-29T06:04:31.372Z,16.95
2023-04-29T06:07:20.080Z,16.98
2023-04-29T06:09:56.095Z,16.74
2023-04-29T06:12:24.871Z,16.84
2023-04-29T06:14:52.257Z,16.79
2023-04-29T06:17:18.852Z,16.80
2023-04-29T06:19:45.516Z,16.93
2023-04-29T06:22:12.266Z,16.92
2023-04-29T06:24:43.575Z,17.07
2023-04-29T06:27:12.279Z,16.99
2023-04-29T06:29:39.146Z,16.88
2023-04-29T06:32:06.103Z,17.06
2023-04-29T06:34:32.991Z,17.05
2023-04-29T06:37:22.542Z,17.11
2023-04-29T06:39:56.310Z,16.82
2023-04-29T06:42:41.394Z,17.05
2023-04-29T06:45:31.625Z,17.14
2023-04-29T06:48:08.874Z,17.09
2023-04-29T06:50:52.563Z,17.03
2023-04-29T06:53:20.042Z,16.98
2023-04-29T06:55:46.978Z,17.06
2023-04-29T06:58:14.743Z,17.06
2023-04-29T07:00:45.010Z,17.16
2023-04-29T07:03:12.097Z,17.20
2023-04-29T07:05:40.774Z,17.22
2023-04-29T07:08:10.312Z,17.20
2023-04-29T07:10:36.998Z,17.29
2023-04-29T07:13:04.559Z,17.33
2023-04-29T07:15:35.252Z,17.39
2023-04-29T07:18:05.249Z,17.45
2023-04-29T07:20:32.414Z,17.58
2023-04-29T07:22:59.410Z,17.51
2023-04-29T07:25:27.191Z,17.51
2023-04-29T07:27:53.888Z,17.68
2023-04-29T07:30:21.009Z,17.76
2023-04-29T07:32:47.947Z,17.77
2023-04-29T07:35:15.007Z,17.87
2023-04-29T07:37:44.054Z,17.83
2023-04-29T07:40:11.362Z,17.89
2023-04-29T07:42:38.439Z,17.87
2023-04-29T07:45:07.516Z,17.88
2023-04-29T07:47:34.412Z,17.76
2023-04-29T07:50:01.383Z,17.91
2023-04-29T07:52:28.375Z,17.78
2023-04-29T07:54:57.991Z,17.78
2023-04-29T07:57:25.001Z,17.63
2023-04-29T07:59:55.482Z,17.71
2023-04-29T08:02:22.352Z,17.70
2023-04-29T08:04:51.622Z,17.64
2023-04-29T08:07:19.000Z,17.75
2023-04-29T08:09:45.755Z,17.77
2023-04-29T08:12:13.218Z,17.90
2023-04-29T08:14:40.635Z,17.86
2023-04-29T08:17:08.291Z,17.80
2023-04-29T08:19:35.165Z,17.84
2023-04-29T08:22:01.963Z,17.75
2023-04-29T08:24:29.583Z,17.97
2023-04-29T08:26:56.412Z,17.92
2023-04-29T08:29:23.170Z,18.17
2023-04-29T08:31:50.514Z,18.21
2023-04-29T08:34:17.304Z,18.37
2023-04-29T08:36:44.057Z,18.31
2023-04-29T08:39:10.747Z,18.23
2023-04-29T08:41:37.823Z,18.24
2023-04-29T08:44:05.711Z,18.55
2023-04-29T08:46:32.653Z,18.02
2023-04-29T08:49:01.861Z,18.49
2023-04-29T08:51:28.574Z,18.56
2023-04-29T08:53:56.637Z,18.44
2023-04-29T08:56:25.720Z,18.37
2023-04-29T08:58:54.710Z,18.35
2023-04-29T09:01:23.293Z,18.49
2023-04-29T09:04:11.968Z,18.51
2023-04-29T09:06:38.814Z,18.61
2023-04-29T09:09:06.831Z,18.72
2023-04-29T09:11:34.714Z,18.68
2023-04-29T09:14:02.692Z,18.74
2023-04-29T09:16:29.523Z,18.57
2023-04-29T09:18:56.988Z,18.65
2023-04-29T09:21:25.012Z,18.64
2023-04-29T09:23:54.375Z,18.67
2023-04-29T09:26:22.468Z,18.60
2023-04-29T09:29:10.056Z,18.59
2023-04-29T09:31:40.528Z,18.54
2023-04-29T09:34:07.910Z,18.52
2023-04-29T09:36:45.442Z,18.59
2023-04-29T09:39:17.481Z,18.69
2023-04-29T09:41:53.020Z,18.75
2023-04-29T09:44:24.818Z,18.78
2023-04-29T09:47:06.391Z,18.81
2023-04-29T09:49:39.757Z,18.77
2023-04-29T09:52:14.221Z,18.78
2023-04-29T09:54:42.268Z,18.95
2023-04-29T09:57:10.991Z,19.07
2023-04-29T09:59:39.971Z,19.12
2023-04-29T10:02:19.242Z,19.24
2023-04-29T10:04:48.209Z,19.34
2023-04-29T10:07:16.865Z,19.28
2023-04-29T10:09:46.866Z,19.29
2023-04-29T10:12:18.479Z,19.21
2023-04-29T10:14:55.609Z,19.24
2023-04-29T10:17:37.017Z,19.15
2023-04-29T10:20:06.028Z,19.10
2023-04-29T10:22:54.855Z,19.15
2023-04-29T10:25:24.697Z,19.15
2023-04-29T10:27:54.295Z,19.11
2023-04-29T10:30:21.965Z,18.84
2023-04-29T10:32:52.412Z,18.72
2023-04-29T10:35:22.670Z,18.74
2023-04-29T10:37:49.686Z,18.81
2023-04-29T10:40:17.910Z,18.69
2023-04-29T10:42:49.850Z,18.83
2023-04-29T10:45:32.573Z,18.93
2023-04-29T10:48:11.736Z,18.96
2023-04-29T10:50:47.480Z,19.02
2023-04-29T10:53:15.582Z,18.95
2023-04-29T10:55:42.949Z,19.00
2023-04-29T10:58:34.583Z,19.00
2023-04-29T11:01:01.663Z,18.97
2023-04-29T11:04:08.426Z,19.03
2023-04-29T11:06:35.011Z,18.97
2023-04-29T11:09:09.436Z,19.06
2023-04-29T11:12:01.474Z,19.22
2023-04-29T11:14:40.405Z,19.32
2023-04-29T11:17:10.327Z,19.46
2023-04-29T11:19:41.685Z,19.50
2023-04-29T11:22:11.969Z,19.67
2023-04-29T11:24:57.091Z,19.53
2023-04-29T11:27:26.092Z,19.67
2023-04-29T11:30:00.860Z,19.75
2023-04-29T11:32:29.533Z,19.67
2023-04-29T11:35:08.121Z,19.58
2023-04-29T11:37:35.236Z,19.52
2023-04-29T11:40:02.119Z,19.55
2023-04-29T11:42:29.019Z,19.55
2023-04-29T11:45:00.398Z,19.57
2023-04-29T11:47:30.930Z,19.65
2023-04-29T11:50:10.148Z,19.78
2023-04-29T11:52:38.700Z,19.84
2023-04-29T11:55:06.495Z,20.08
2023-04-29T11:57:33.170Z,20.07
2023-04-29T12:00:00.365Z,19.94
2023-04-29T12:02:34.853Z,20.16
2023-04-29T12:07:35.013Z,20.22
2023-04-29T12:10:01.802Z,20.20
2023-04-29T12:12:29.642Z,20.27
2023-04-29T12:14:56.678Z,20.19
2023-04-29T12:17:24.389Z,20.08
2023-04-29T12:19:51.536Z,20.16
2023-04-29T12:22:19.624Z,20.25
2023-04-29T12:24:46.902Z,20.39
2023-04-29T12:27:13.584Z,20.37
2023-04-29T12:29:40.713Z,20.39
2023-04-29T12:32:08.444Z,20.35
2023-04-29T12:34:35.093Z,20.39
2023-04-29T12:37:02.419Z,20.51
2023-04-29T12:39:30.251Z,20.50
2023-04-29T12:42:01.657Z,20.46
2023-04-29T12:44:36.476Z,20.35
2023-04-29T12:47:10.503Z,20.43
2023-04-29T12:49:40.684Z,20.38
2023-04-29T12:52:10.232Z,20.55
2023-04-29T12:54:38.030Z,20.58
2023-04-29T12:57:04.926Z,20.54
2023-04-29T12:59:31.682Z,20.54
2023-04-29T13:01:58.415Z,20.64
2023-04-29T13:04:25.266Z,20.56
2023-04-29T13:06:59.033Z,20.69
2023-04-29T13:09:28.627Z,20.74
2023-04-29T13:11:55.291Z,20.81
2023-04-29T13:14:22.235Z,20.85
2023-04-29T13:16:49.285Z,20.69
2023-04-29T13:19:32.035Z,20.83
2023-04-29T13:22:02.987Z,20.45
2023-04-29T13:24:29.784Z,20.58
2023-04-29T13:26:56.487Z,20.55
2023-04-29T13:29:24.138Z,20.52
2023-04-29T13:31:50.996Z,20.36
2023-04-29T13:34:17.875Z,20.46
2023-04-29T13:36:44.694Z,20.45
2023-04-29T13:39:11.457Z,20.41
2023-04-29T13:41:41.303Z,20.44
2023-04-29T13:44:23.754Z,20.39
2023-04-29T13:46:55.745Z,20.41
2023-04-29T13:49:56.040Z,20.00
2023-04-29T13:53:10.011Z,19.88
2023-04-29T13:55:46.636Z,19.72
2023-04-29T14:00:44.103Z,19.58
2023-04-29T14:03:03.341Z,19.76
2023-04-29T14:05:30.361Z,19.80
2023-04-29T14:07:57.238Z,19.58
2023-04-29T14:10:23.836Z,19.57
2023-04-29T14:12:50.560Z,19.58
2023-04-29T14:15:17.332Z,19.57
2023-04-29T14:17:44.227Z,19.72
2023-04-29T14:20:11.303Z,19.79
2023-04-29T14:22:37.958Z,19.67
2023-04-29T14:25:04.996Z,19.51
2023-04-29T14:27:31.672Z,19.58
2023-04-29T14:29:58.317Z,19.63
2023-04-29T14:32:24.979Z,19.66
2023-04-29T14:34:51.903Z,19.67
2023-04-29T14:37:18.658Z,19.65
2023-04-29T14:39:45.418Z,19.73
2023-04-29T14:42:12.853Z,19.63
2023-04-29T14:44:39.527Z,19.52
2023-04-29T14:47:06.155Z,19.48
2023-04-29T14:49:32.799Z,19.43
2023-04-29T14:51:59.668Z,19.39
2023-04-29T14:54:27.806Z,19.29
2023-04-29T14:56:54.456Z,19.24
2023-04-29T14:59:21.120Z,19.19
2023-04-29T15:01:47.894Z,19.12
2023-04-29T15:04:14.826Z,19.16
2023-04-29T15:06:41.694Z,19.29
2023-04-29T15:09:08.484Z,19.23
2023-04-29T15:11:35.208Z,19.29
2023-04-29T15:14:01.878Z,19.45
2023-04-29T15:16:29.618Z,19.59
2023-04-29T15:18:56.326Z,19.64
2023-04-29T15:21:23.102Z,19.78
2023-04-29T15:23:49.823Z,19.73
2023-04-29T15:26:16.556Z,19.86
2023-04-29T15:28:45.524Z,19.92
2023-04-29T15:31:13.208Z,19.81
2023-04-29T15:33:39.840Z,19.90
2023-04-29T15:36:06.971Z,19.90
2023-04-29T15:38:33.580Z,20.00
2023-04-29T15:41:03.931Z,19.98
2023-04-29T15:43:31.864Z,19.99
2023-04-29T15:45:59.414Z,19.90
2023-04-29T15:48:26.204Z,19.77
2023-04-29T15:50:53.684Z,19.75
2023-04-29T15:53:20.680Z,19.74
2023-04-29T15:55:47.307Z,19.56
2023-04-29T15:58:14.128Z,19.56
2023-04-29T16:00:41.079Z,19.46
2023-04-29T16:03:07.847Z,19.38
2023-04-29T16:05:34.585Z,19.41
2023-04-29T16:08:01.283Z,19.48
2023-04-29T16:10:27.934Z,19.30
2023-04-29T16:12:54.647Z,19.37
2023-04-29T16:15:21.507Z,19.48
2023-04-29T16:17:48.579Z,19.21
2023-04-29T16:20:15.340Z,18.95
2023-04-29T16:22:41.967Z,18.71
2023-04-29T16:25:09.203Z,18.88
2023-04-29T16:27:36.083Z,18.84
2023-04-29T16:30:04.078Z,18.86
2023-04-29T16:32:32.641Z,18.66
2023-04-29T16:35:01.391Z,18.79
2023-04-29T16:37:29.054Z,18.94
2023-04-29T16:39:55.980Z,18.91
2023-04-29T16:42:22.783Z,18.91
2023-04-29T16:44:49.572Z,18.91
2023-04-29T16:47:19.024Z,19.05
2023-04-29T16:49:46.913Z,19.04
2023-04-29T16:52:14.434Z,18.94
2023-04-29T16:54:41.738Z,18.90
2023-04-29T16:57:08.429Z,18.77
2023-04-29T16:59:35.245Z,18.64
2023-04-29T17:02:02.895Z,18.54
2023-04-29T17:04:33.055Z,18.66
2023-04-29T17:07:01.379Z,18.72
2023-04-29T17:09:28.120Z,18.71
2023-04-29T17:11:54.751Z,18.81
2023-04-29T17:14:21.420Z,18.58
2023-04-29T17:16:48.147Z,18.44
2023-04-29T17:19:14.797Z,18.51
2023-04-29T17:21:41.504Z,18.75
2023-04-29T17:24:08.128Z,18.84
2023-04-29T17:26:34.914Z,18.70
2023-04-29T17:29:01.546Z,18.70
2023-04-29T17:31:44.514Z,18.80
2023-04-29T17:34:18.410Z,18.86
2023-04-29T17:36:48.159Z,18.78
2023-04-29T17:39:14.952Z,18.77
2023-04-29T17:41:41.801Z,18.76
2023-04-29T17:44:09.242Z,18.75
2023-04-29T17:46:36.832Z,18.66
2023-04-29T17:49:04.554Z,18.70
2023-04-29T17:51:34.255Z,18.60
2023-04-29T17:54:01.788Z,18.60
2023-04-29T17:56:28.510Z,18.35
2023-04-29T17:58:56.302Z,18.36
2023-04-29T18:01:23.036Z,18.32
2023-04-29T18:03:52.530Z,18.22
2023-04-29T18:06:19.383Z,18.20
2023-04-29T18:08:46.092Z,18.25
2023-04-29T18:11:12.943Z,18.25
2023-04-29T18:13:40.632Z,18.34
2023-04-29T18:16:08.712Z,18.23
2023-04-29T18:18:37.199Z,18.28
2023-04-29T18:21:04.748Z,18.32
2023-04-29T18:23:31.462Z,18.23
2023-04-29T18:25:58.187Z,18.12
2023-04-29T18:28:25.809Z,18.22
2023-04-29T18:30:52.987Z,18.12
2023-04-29T18:33:19.988Z,18.20
2023-04-29T18:35:46.864Z,18.19
2023-04-29T18:38:17.071Z,18.09
2023-04-29T18:40:44.460Z,18.11
2023-04-29T18:43:15.138Z,18.08
2023-04-29T18:45:41.847Z,18.10
2023-04-29T18:48:08.648Z,18.06
2023-04-29T18:50:35.379Z,17.87
2023-04-29T18:53:02.010Z,17.81
2023-04-29T18:55:29.056Z,17.75
2023-04-29T18:57:55.802Z,17.73
2023-04-29T19:00:22.496Z,17.67
2023-04-29T19:02:49.357Z,17.63
2023-04-29T19:05:16.357Z,17.56
2023-04-29T19:07:43.266Z,17.55
2023-04-29T19:10:10.564Z,17.53
2023-04-29T19:12:37.591Z,17.48
2023-04-29T19:15:04.724Z,17.47
2023-04-29T19:17:31.419Z,17.46
2023-04-29T19:19:58.097Z,17.47
2023-04-29T19:22:26.186Z,17.49
2023-04-29T19:24:52.894Z,17.45
2023-04-29T19:27:19.524Z,17.47
2023-04-29T19:29:46.179Z,17.46
2023-04-29T19:32:12.782Z,17.49
2023-04-29T19:34:39.465Z,17.56
2023-04-29T19:37:06.256Z,17.52
2023-04-29T19:39:33.625Z,17.43
2023-04-29T19:42:00.297Z,17.44
2023-04-29T19:44:26.921Z,17.32
2023-04-29T19:46:53.814Z,17.25
2023-04-29T19:49:20.837Z,17.18
2023-04-29T19:51:47.571Z,17.12
2023-04-29T19:54:14.342Z,17.09
2023-04-29T19:56:43.791Z,16.85
2023-04-29T19:59:13.239Z,16.71
2023-04-29T20:01:42.930Z,16.60
2023-04-29T20:04:11.919Z,16.62
2023-04-29T20:06:39.317Z,16.57
2023-04-29T20:09:06.057Z,16.56
2023-04-29T20:11:32.660Z,16.40
2023-04-29T20:14:02.209Z,16.55
2023-04-29T20:16:29.938Z,16.61
2023-04-29T20:18:56.614Z,16.69
2023-04-29T20:21:23.445Z,16.66
2023-04-29T20:23:50.067Z,16.68
2023-04-29T20:26:17.884Z,16.74
2023-04-29T20:28:46.373Z,16.71
2023-04-29T20:31:13.081Z,16.61
2023-04-29T20:33:39.906Z,16.55
2023-04-29T20:36:07.381Z,16.71
2023-04-29T20:38:35.165Z,16.85
2023-04-29T20:41:02.977Z,16.97
2023-04-29T20:43:29.728Z,16.88
2023-04-29T20:45:58.224Z,16.90
2023-04-29T20:48:24.997Z,16.88
2023-04-29T20:50:52.081Z,16.89
2023-04-29T20:53:18.779Z,16.81
2023-04-29T20:55:46.147Z,16.86
2023-04-29T20:58:12.915Z,16.85
2023-04-29T21:00:40.646Z,16.86
2023-04-29T21:03:07.720Z,16.80
2023-04-29T21:05:34.412Z,16.77
2023-04-29T21:08:01.019Z,16.67
2023-04-29T21:10:27.693Z,16.66
2023-04-29T21:12:54.279Z,16.61
2023-04-29T21:15:20.959Z,16.65
2023-04-29T21:17:47.643Z,16.67
2023-04-29T21:20:14.370Z,16.59
2023-04-29T21:22:40.982Z,16.63
2023-04-29T21:25:08.435Z,16.52
2023-04-29T21:27:36.412Z,16.57
2023-04-29T21:30:04.892Z,16.51
2023-04-29T21:32:33.477Z,16.46
2023-04-29T21:35:00.449Z,16.51
2023-04-29T21:37:27.110Z,16.52
2023-04-29T21:39:57.267Z,16.50
2023-04-29T21:42:26.169Z,16.38
2023-04-29T21:44:58.305Z,16.38
2023-04-29T21:47:25.624Z,16.38
2023-04-29T21:49:53.533Z,16.44
2023-04-29T21:52:20.499Z,16.41
2023-04-29T21:54:47.111Z,16.34
2023-04-29T21:57:13.737Z,16.24
2023-04-29T21:59:40.567Z,16.20
2023-04-29T22:02:22.723Z,16.08
2023-04-29T22:04:50.846Z,16.11
2023-04-29T22:07:18.992Z,16.15
2023-04-29T22:09:49.442Z,16.24
2023-04-29T22:12:17.592Z,16.23
2023-04-29T22:14:44.360Z,16.21
2023-04-29T22:17:11.238Z,16.22
2023-04-29T22:19:37.950Z,16.00
2023-04-29T22:22:04.907Z,16.11
2023-04-29T22:24:31.639Z,16.15
2023-04-29T22:26:58.259Z,16.12
2023-04-29T22:29:24.870Z,16.09
2023-04-29T22:31:52.592Z,16.13
2023-04-29T22:34:19.379Z,16.13
2023-04-29T22:36:45.980Z,16.14
2023-04-29T22:39:12.672Z,16.11
2023-04-29T22:41:39.270Z,16.01
2023-04-29T22:44:05.900Z,16.13
2023-04-29T22:46:33.353Z,16.08
2023-04-29T22:49:00.191Z,16.17
2023-04-29T22:51:26.798Z,16.16
2023-04-29T22:53:53.455Z,16.03
2023-04-29T22:56:20.120Z,16.06
2023-04-29T22:58:46.776Z,15.91
2023-04-29T23:01:13.497Z,15.94
2023-04-29T23:03:40.391Z,16.08
2023-04-29T23:06:07.170Z,16.06
2023-04-29T23:08:33.855Z,16.18
2023-04-29T23:11:00.618Z,16.15
2023-04-29T23:13:27.278Z,16.15
2023-04-29T23:15:57.647Z,16.01
2023-04-29T23:18:27.001Z,16.04
2023-04-29T23:20:53.749Z,15.99
2023-04-29T23:23:20.404Z,15.88
2023-04-29T23:25:47.068Z,15.96
2023-04-29T23:28:13.695Z,15.98
2023-04-29T23:30:40.716Z,15.94
2023-04-29T23:33:07.643Z,15.85
2023-04-29T23:35:34.596Z,15.81
2023-04-29T23:38:01.195Z,15.89
2023-04-29T23:40:27.846Z,15.87
2023-04-29T23:42:54.512Z,15.81
2023-04-29T23:45:21.254Z,15.67
2023-04-29T23:47:47.944Z,15.66
2023-04-29T23:50:14.807Z,15.86
2023-04-29T23:52:41.518Z,15.70
2023-04-29T23:55:08.930Z,15.60
2023-04-29T23:57:35.852Z,15.62
